Time;durP1;ratioP1;P1;durP2;ratioP2;P2;SDS_P1;SDS_P2;PMS_P1;PMS_P2;Temp;Humidity;BMP_temperature;BMP_pressure;BME280_temperature;BME280_humidity;BME280_pressure;Samples;Min_cycle;Max_cycle;Signal;HPM_P1;HPM_P2
2021/11/20 00:01:54;;;;;;;30.57;19.90;;;;;;;5.80;91.25;100930.37;1407916;92;22528;-86
2021/11/20 00:04:21;;;;;;;35.17;21.77;;;;;;;5.74;91.12;100925.53;1417419;92;21449;-87
2021/11/20 00:06:51;;;;;;;28.80;20.40;;;;;;;5.71;91.09;100936.73;1411871;92;22351;-86
2021/11/20 00:09:21;;;;;;;25.27;18.37;;;;;;;5.67;91.28;100943.98;1397249;92;21427;-87
2021/11/20 00:11:50;;;;;;;29.37;18.47;;;;;;;5.65;91.18;100936.19;1409752;92;21648;-87
2021/11/20 00:14:20;;;;;;;31.97;21.17;;;;;;;5.62;91.23;100931.15;1414371;92;21494;-86
2021/11/20 00:16:50;;;;;;;30.57;22.13;;;;;;;5.53;91.33;100918.64;1399543;92;21515;-87
2021/11/20 00:19:20;;;;;;;35.17;20.12;;;;;;;5.48;91.53;100921.20;1418359;92;21552;-87
2021/11/20 00:21:54;;;;;;;30.93;22.17;;;;;;;5.42;91.45;100924.61;1398064;93;21589;-88
2021/11/20 00:24:47;;;;;;;25.97;18.63;;;;;;;5.39;91.78;100913.48;1407279;93;21595;-88
2021/11/20 00:27:21;;;;;;;28.73;19.37;;;;;;;5.34;92.14;100917.70;1441068;90;21598;-88
2021/11/20 00:30:01;;;;;;;32.73;21.20;;;;;;;5.31;91.94;100928.41;1448068;90;22492;-88
2021/11/20 00:32:33;;;;;;;28.97;19.77;;;;;;;5.28;92.17;100927.30;1419638;92;21480;-87
2021/11/20 00:35:04;;;;;;;26.90;19.00;;;;;;;5.23;92.00;100918.05;1422023;92;21642;-87
2021/11/20 00:37:30;;;;;;;32.28;20.95;;;;;;;5.17;92.17;100928.00;1443688;90;21554;-87
2021/11/20 00:39:56;;;;;;;30.00;19.40;;;;;;;5.12;92.18;100939.73;1440901;90;21678;-87
2021/11/20 00:42:23;;;;;;;31.33;19.27;;;;;;;5.11;92.11;100952.50;1435907;90;21643;-89
2021/11/20 00:44:50;;;;;;;24.80;18.17;;;;;;;5.12;92.19;100947.61;1443592;89;21547;-87
2021/11/20 00:47:18;;;;;;;29.33;18.53;;;;;;;5.15;92.22;100942.16;1444501;90;21539;-86
2021/11/20 00:49:45;;;;;;;29.97;18.93;;;;;;;5.17;92.14;100938.97;1441653;90;21495;-87
2021/11/20 00:52:12;;;;;;;26.93;19.10;;;;;;;5.15;92.11;100950.03;1443788;90;21450;-87
2021/11/20 00:54:39;;;;;;;30.53;19.73;;;;;;;5.11;91.86;100945.94;1440464;90;21480;-87
2021/11/20 00:57:08;;;;;;;27.03;19.63;;;;;;;5.06;91.85;100945.39;1439554;90;21480;-87
2021/11/20 00:59:35;;;;;;;32.23;21.20;;;;;;;5.00;91.65;100939.23;1445698;90;21575;-87
2021/11/20 01:02:04;;;;;;;25.10;17.83;;;;;;;4.89;91.50;100934.22;1436832;90;22330;-87
2021/11/20 01:04:32;;;;;;;28.83;19.00;;;;;;;4.85;91.29;100939.27;1448629;90;21489;-87
2021/11/20 01:07:00;;;;;;;27.57;19.17;;;;;;;4.79;90.98;100936.22;1439364;90;21561;-87
2021/11/20 01:09:31;;;;;;;28.33;18.20;;;;;;;4.71;90.80;100932.28;1442237;90;22529;-87
2021/11/20 01:12:06;;;;;;;27.83;18.27;;;;;;;4.61;90.73;100930.36;1444525;90;21443;-88
2021/11/20 01:14:34;;;;;;;39.87;24.33;;;;;;;4.44;90.91;100919.15;1444367;90;22456;-87
2021/11/20 01:17:04;;;;;;;37.30;23.30;;;;;;;4.31;90.94;100914.29;1432194;90;21584;-87
2021/11/20 01:19:31;;;;;;;34.83;21.70;;;;;;;4.23;91.00;100901.69;1431481;90;22558;-87
2021/11/20 01:22:00;;;;;;;30.53;19.47;;;;;;;4.18;91.15;100909.45;1443818;90;22397;-88
2021/11/20 01:24:26;;;;;;;28.77;18.50;;;;;;;4.14;92.30;100927.59;1438595;90;21413;-87
2021/11/20 01:26:53;;;;;;;27.80;18.03;;;;;;;4.10;91.94;100920.88;1445384;90;21531;-87
2021/11/20 01:29:22;;;;;;;30.60;20.23;;;;;;;4.10;91.85;100924.33;1446338;90;22295;-86
2021/11/20 01:31:52;;;;;;;24.40;18.13;;;;;;;4.12;92.12;100924.25;1445117;89;21581;-86
2021/11/20 01:34:22;;;;;;;28.33;17.97;;;;;;;4.00;93.77;100927.12;1446042;90;22520;-86
2021/11/20 01:36:52;;;;;;;30.17;20.77;;;;;;;4.00;93.77;100927.12;1444036;90;22597;-86
2021/11/20 01:39:28;;;;;;;32.60;20.80;;;;;;;4.00;93.22;100925.80;1445736;90;22321;-87
2021/11/20 01:42:02;;;;;;;27.37;18.27;;;;;;;3.96;93.25;100926.47;1446424;90;22321;-86
2021/11/20 01:44:48;;;;;;;29.37;18.27;;;;;;;3.95;92.84;100914.80;1444544;90;22335;-86
2021/11/20 01:47:35;;;;;;;29.10;20.00;;;;;;;3.92;92.67;100924.15;1439984;90;21582;-87
2021/11/20 01:50:10;;;;;;;22.57;15.13;;;;;;;3.95;92.65;100916.94;1444107;90;21629;-88
2021/11/20 01:52:50;;;;;;;26.43;18.53;;;;;;;4.01;92.76;100911.80;1453662;90;22267;-87
2021/11/20 01:55:56;;;;;;;30.57;17.85;;;;;;;4.02;92.72;100903.83;1444155;90;22497;-86
2021/11/20 01:58:36;;;;;;;35.23;23.83;;;;;;;4.11;93.21;100896.34;1445209;90;21470;-86
2021/11/20 02:01:18;;;;;;;39.83;24.02;;;;;;;4.11;93.21;100896.34;1441232;89;22742;-86
2021/11/20 02:03:56;;;;;;;48.20;27.63;;;;;;;4.19;93.45;100910.66;1446720;89;22107;-86
2021/11/20 02:06:55;;;;;;;32.23;21.27;;;;;;;4.26;93.65;100915.07;1444123;90;21596;-87
2021/11/20 02:09:41;;;;;;;32.63;21.70;;;;;;;4.29;94.92;100920.12;1448638;90;21604;-86
2021/11/20 02:12:13;;;;;;;35.60;21.57;;;;;;;4.35;94.15;100911.03;1445353;90;21588;-87
2021/11/20 02:14:42;;;;;;;31.67;20.53;;;;;;;4.40;94.17;100892.77;1445393;90;21485;-87
2021/11/20 02:17:16;;;;;;;31.40;21.63;;;;;;;4.40;94.17;100892.77;1440855;90;21662;-87
2021/11/20 02:19:48;;;;;;;29.80;18.57;;;;;;;4.48;94.08;100896.20;1451238;89;22623;-87
2021/11/20 02:22:28;;;;;;;30.10;20.17;;;;;;;4.48;94.08;100896.20;1462891;89;22682;-88
2021/11/20 02:24:54;;;;;;;31.82;20.25;;;;;;;4.50;93.72;100900.41;1461386;88;21492;-87
2021/11/20 02:27:20;;;;;;;27.90;19.30;;;;;;;4.53;93.66;100901.53;1462124;89;21477;-87
2021/11/20 02:29:48;;;;;;;30.53;19.70;;;;;;;4.55;93.74;100897.98;1463804;88;21952;-86
2021/11/20 02:32:20;;;;;;;28.17;19.93;;;;;;;4.56;93.29;100900.50;1465581;88;21658;-87
2021/11/20 02:34:49;;;;;;;32.13;21.40;;;;;;;4.57;93.02;100896.09;1468067;88;21983;-87
2021/11/20 02:37:18;;;;;;;27.67;19.43;;;;;;;4.54;92.98;100889.25;1469938;88;21654;-87
2021/11/20 02:39:46;;;;;;;33.40;23.00;;;;;;;4.49;92.78;100875.15;1468695;89;21448;-86
2021/11/20 02:42:17;;;;;;;34.87;23.07;;;;;;;4.46;92.67;100877.10;1466049;88;21484;-86
2021/11/20 02:44:44;;;;;;;39.90;23.30;;;;;;;4.36;92.61;100882.09;1474470;89;21529;-87
2021/11/20 02:47:31;;;;;;;29.80;20.53;;;;;;;4.30;92.42;100882.48;1463539;89;22541;-87
2021/11/20 02:49:58;;;;;;;29.87;18.83;;;;;;;4.22;92.04;100893.44;1472099;88;21635;-86
2021/11/20 02:52:25;;;;;;;28.13;17.93;;;;;;;4.18;92.04;100889.81;1468261;89;22512;-86
2021/11/20 02:54:53;;;;;;;32.90;18.77;;;;;;;4.11;92.35;100872.77;1470182;88;21643;-86
2021/11/20 02:57:30;;;;;;;33.27;21.73;;;;;;;4.11;92.35;100872.77;1461298;87;22899;-86
2021/11/20 02:59:57;;;;;;;32.90;20.57;;;;;;;4.14;92.83;100883.05;1462047;89;21484;-87
2021/11/20 03:02:24;;;;;;;35.50;21.47;;;;;;;4.11;92.67;100878.01;1468283;88;21470;-87
2021/11/20 03:04:50;;;;;;;32.00;22.00;;;;;;;4.11;92.67;100878.01;1461895;89;22371;-86
2021/11/20 03:07:17;;;;;;;33.37;22.43;;;;;;;4.05;92.67;100854.84;1466180;87;21559;-86
2021/11/20 03:09:44;;;;;;;32.07;21.37;;;;;;;3.96;92.97;100863.61;1474160;89;21538;-86
2021/11/20 03:12:13;;;;;;;32.47;21.97;;;;;;;3.96;92.97;100864.64;1463098;88;21449;-86
2021/11/20 03:14:40;;;;;;;38.00;23.80;;;;;;;3.94;93.79;100864.64;1468668;88;22474;-86
2021/11/20 03:17:10;;;;;;;40.37;23.43;;;;;;;3.93;93.54;100882.14;1471197;89;21529;-89
2021/11/20 03:19:41;;;;;;;58.93;34.03;;;;;;;3.89;93.07;100875.41;1461725;89;22282;-86
2021/11/20 03:22:10;;;;;;;;;;;;;;;3.86;93.10;100879.53;1468875;88;22220;-86
2021/11/20 03:24:37;;;;;;;46.37;26.40;;;;;;;3.81;93.42;100877.66;1465233;89;20396;-86
2021/11/20 03:27:04;;;;;;;48.50;28.07;;;;;;;3.76;93.84;100883.63;1458677;88;23177;-86
2021/11/20 03:29:31;;;;;;;41.97;26.63;;;;;;;3.74;93.72;100885.48;1470698;88;22166;-85
2021/11/20 03:31:59;;;;;;;47.40;28.97;;;;;;;3.74;93.72;100885.48;1463726;88;22432;-87
2021/11/20 03:34:28;;;;;;;61.27;35.60;;;;;;;3.77;93.95;100882.69;1462042;89;22136;-87
2021/11/20 03:36:55;;;;;;;52.90;26.47;;;;;;;3.80;94.24;100891.22;1468502;88;22417;-86
2021/11/20 03:39:21;;;;;;;31.07;18.67;;;;;;;3.85;94.37;100890.92;1460146;89;22174;-87
2021/11/20 03:41:48;;;;;;;54.33;28.07;;;;;;;3.88;94.54;100889.42;1462464;89;23084;-87
2021/11/20 03:44:14;;;;;;;60.30;36.53;;;;;;;3.93;94.47;100895.70;1461650;89;22196;-87
2021/11/20 03:46:43;;;;;;;32.97;20.43;;;;;;;3.97;94.22;100887.58;1460639;88;22188;-87
2021/11/20 03:49:10;;;;;;;33.27;20.33;;;;;;;4.02;94.02;100875.48;1452834;89;22079;-87
2021/11/20 03:51:37;;;;;;;32.77;18.83;;;;;;;4.04;93.98;100875.77;1469691;89;23114;-87
2021/11/20 03:54:03;;;;;;;27.00;18.40;;;;;;;4.07;94.10;100872.96;1464882;88;22123;-87
2021/11/20 03:56:31;;;;;;;26.97;19.00;;;;;;;4.13;94.20;100874.36;1458005;89;22218;-88
2021/11/20 03:58:58;;;;;;;31.20;18.43;;;;;;;4.18;94.55;100864.92;1467265;89;21463;-87
2021/11/20 04:01:27;;;;;;;22.60;17.10;;;;;;;4.18;94.55;100864.92;1453902;88;21476;-86
2021/11/20 04:03:54;;;;;;;19.77;15.50;;;;;;;4.21;95.38;100866.03;1466337;89;22372;-86
2021/11/20 04:06:20;;;;;;;27.50;15.83;;;;;;;4.20;95.86;100866.95;1468145;89;21566;-87
2021/11/20 04:08:50;;;;;;;28.23;16.30;;;;;;;4.21;96.91;100864.72;1466572;88;22380;-86
2021/11/20 04:11:21;;;;;;;29.67;16.67;;;;;;;4.24;96.49;100868.46;1465586;89;21479;-87
2021/11/20 04:13:47;;;;;;;;;;;;;;;4.27;96.80;100861.72;1465978;89;22112;-86
2021/11/20 04:16:16;;;;;;;27.53;18.00;;;;;;;4.25;96.81;100857.03;1471590;89;20248;-86
2021/11/20 04:18:45;;;;;;;25.03;17.30;;;;;;;4.24;97.56;100864.53;1458415;89;21456;-86
2021/11/20 04:21:14;;;;;;;27.03;16.80;;;;;;;4.26;97.19;100861.36;1467617;88;21507;-86
2021/11/20 04:23:45;;;;;;;25.03;16.80;;;;;;;4.30;97.14;100862.83;1468155;89;21492;-86
2021/11/20 04:26:10;;;;;;;35.00;16.73;;;;;;;4.34;96.98;100864.30;1466125;89;21455;-86
2021/11/20 04:28:36;;;;;;;36.10;18.37;;;;;;;4.38;96.96;100863.19;1458730;89;21426;-86
2021/11/20 04:31:02;;;;;;;34.27;19.90;;;;;;;4.43;96.86;100868.13;1468252;89;21500;-85
2021/11/20 04:33:28;;;;;;;24.83;19.50;;;;;;;4.47;96.98;100865.22;1466992;89;21478;-87
2021/11/20 04:35:54;;;;;;;33.33;19.10;;;;;;;4.51;96.88;100861.93;1473073;89;21411;-88
2021/11/20 04:38:21;;;;;;;22.80;16.03;;;;;;;4.52;96.74;100849.22;1472703;89;21559;-87
2021/11/20 04:40:48;;;;;;;20.50;15.53;;;;;;;4.51;96.87;100849.66;1469052;89;21455;-86
2021/11/20 04:43:14;;;;;;;26.50;18.17;;;;;;;4.49;96.86;100854.18;1464984;89;21478;-87
2021/11/20 04:45:41;;;;;;;26.70;16.10;;;;;;;4.52;96.88;100856.61;1470912;89;22423;-89
2021/11/20 04:48:09;;;;;;;31.07;16.50;;;;;;;4.55;96.76;100856.88;1467090;89;21480;-87
2021/11/20 04:50:37;;;;;;;32.93;17.43;;;;;;;4.57;96.49;100856.77;1469121;89;21383;-87
2021/11/20 04:53:05;;;;;;;36.80;17.03;;;;;;;4.52;96.64;100855.77;1470772;89;21620;-87
2021/11/20 04:55:31;;;;;;;22.77;18.10;;;;;;;4.51;96.72;100850.97;1465528;89;21538;-86
2021/11/20 04:57:57;;;;;;;26.43;18.27;;;;;;;4.49;96.66;100848.94;1467381;89;21325;-87
2021/11/20 05:00:32;;;;;;;29.30;19.10;;;;;;;4.48;96.69;100851.16;1443482;89;22278;-88
2021/11/20 05:02:59;;;;;;;24.83;16.37;;;;;;;4.47;96.78;100844.25;1466862;89;21682;-87
2021/11/20 05:05:26;;;;;;;27.70;16.70;;;;;;;4.44;96.87;100843.61;1469180;89;21346;-88
2021/11/20 05:07:52;;;;;;;23.43;16.47;;;;;;;4.39;96.98;100845.20;1463139;89;21587;-88
2021/11/20 05:10:18;;;;;;;39.90;18.17;;;;;;;4.39;97.10;100850.92;1470771;89;22382;-88
2021/11/20 05:12:44;;;;;;;24.87;19.43;;;;;;;4.40;97.19;100853.47;1467942;89;21435;-88
2021/11/20 05:15:13;;;;;;;23.97;18.03;;;;;;;4.41;97.35;100864.78;1445976;89;21612;-87
2021/11/20 05:17:40;;;;;;;21.33;16.23;;;;;;;4.41;97.35;100864.78;1464022;89;22434;-87
2021/11/20 05:20:07;;;;;;;19.60;15.50;;;;;;;4.35;98.06;100850.28;1466929;89;21612;-86
2021/11/20 05:22:34;;;;;;;23.20;16.03;;;;;;;4.34;98.09;100848.58;1477027;88;22520;-86
2021/11/20 05:25:00;;;;;;;17.10;14.37;;;;;;;4.33;98.56;100857.39;1457078;89;21521;-87
2021/11/20 05:27:26;;;;;;;23.80;15.07;;;;;;;4.31;98.75;100860.57;1472872;88;21470;-86
2021/11/20 05:30:01;;;;;;;27.07;15.97;;;;;;;4.29;98.52;100862.00;1467085;89;21493;-86
2021/11/20 05:32:21;;;;;;;27.43;18.53;;;;;;;4.28;99.34;100873.87;1473466;89;21529;-87
2021/11/20 05:34:47;;;;;;;19.20;15.70;;;;;;;4.26;99.14;100866.59;1463071;89;21470;-87
2021/11/20 05:37:14;;;;;;;34.97;18.80;;;;;;;4.29;98.73;100866.41;1466739;89;21492;-87
2021/11/20 05:39:40;;;;;;;23.77;16.97;;;;;;;4.32;98.67;100875.38;1464987;89;22385;-87
2021/11/20 05:42:09;;;;;;;23.90;17.43;;;;;;;4.36;98.65;100875.54;1458145;89;21536;-87
2021/11/20 05:44:35;;;;;;;26.07;17.80;;;;;;;4.40;98.60;100881.42;1468170;89;22570;-87
2021/11/20 05:47:03;;;;;;;32.50;19.23;;;;;;;4.41;98.40;100886.58;1467346;89;21720;-86
2021/11/20 05:49:33;;;;;;;21.07;16.17;;;;;;;4.47;98.56;100895.37;1464668;89;21599;-86
2021/11/20 05:52:02;;;;;;;18.87;15.78;;;;;;;4.47;98.41;100890.13;1469564;89;21559;-87
2021/11/20 05:54:29;;;;;;;19.53;14.97;;;;;;;4.49;98.21;100892.19;1464883;89;21551;-87
2021/11/20 05:56:56;;;;;;;20.37;14.33;;;;;;;4.45;97.92;100908.19;1456356;89;21463;-87
2021/11/20 05:59:23;;;;;;;20.80;13.67;;;;;;;4.40;97.88;100905.02;1468324;89;21462;-88
2021/11/20 06:01:51;;;;;;;20.87;15.30;;;;;;;4.35;97.77;100886.97;1468226;89;21497;-87
2021/11/20 06:04:18;;;;;;;29.27;15.97;;;;;;;4.41;97.88;100900.16;1469734;89;21412;-87
2021/11/20 06:06:44;;;;;;;37.70;19.07;;;;;;;4.35;98.12;100890.91;1467857;89;21470;-87
2021/11/20 06:09:10;;;;;;;27.50;17.43;;;;;;;4.34;97.97;100900.99;1473630;88;21470;-87
2021/11/20 06:11:37;;;;;;;24.43;17.50;;;;;;;4.34;98.31;100900.99;1462720;89;21471;-87
2021/11/20 06:14:05;;;;;;;21.97;16.43;;;;;;;4.30;99.18;100908.69;1472959;89;21455;-88
2021/11/20 06:16:33;;;;;;;24.67;16.13;;;;;;;4.31;98.90;100906.43;1464664;89;21418;-88
2021/11/20 06:18:59;;;;;;;25.17;15.87;;;;;;;4.30;98.82;100907.38;1470472;89;21463;-89
2021/11/20 06:21:25;;;;;;;24.27;17.57;;;;;;;4.35;99.54;100923.66;1442648;89;22365;-91
2021/11/20 06:23:51;;;;;;;25.87;16.50;;;;;;;4.42;99.28;100934.59;1462465;88;21514;-88
2021/11/20 06:26:19;;;;;;;21.10;15.67;;;;;;;4.49;99.22;100938.53;1467050;89;21573;-89
2021/11/20 06:28:45;;;;;;;26.87;16.93;;;;;;;4.58;99.19;100946.29;1464146;88;21626;-88
2021/11/20 06:31:13;;;;;;;32.97;18.40;;;;;;;4.63;98.88;100954.69;1465767;88;22423;-88
2021/11/20 06:33:39;;;;;;;30.90;20.57;;;;;;;4.69;99.00;100963.47;1463881;88;21434;-88
2021/11/20 06:36:05;;;;;;;52.53;22.97;;;;;;;4.72;98.89;100968.08;1459627;88;21478;-88
2021/11/20 06:38:36;;;;;;;34.40;22.97;;;;;;;4.77;98.83;100974.32;1456199;89;21449;-87
2021/11/20 06:41:03;;;;;;;27.23;20.50;;;;;;;4.83;98.83;100973.93;1459157;88;22379;-89
2021/11/20 06:43:30;;;;;;;34.70;21.80;;;;;;;4.89;98.63;100970.95;1467441;88;22392;-89
2021/11/20 06:46:02;;;;;;;33.07;18.53;;;;;;;4.97;98.43;100967.34;1475151;88;21374;-88
2021/11/20 06:48:30;;;;;;;30.00;17.33;;;;;;;5.01;98.18;100972.41;1455426;89;22492;-87
2021/11/20 06:50:56;;;;;;;30.00;17.20;;;;;;;5.03;98.04;100977.07;1466272;89;22447;-88
2021/11/20 06:53:24;;;;;;;30.07;19.47;;;;;;;5.00;97.80;100979.89;1467619;88;21478;-87
2021/11/20 06:55:51;;;;;;;30.00;19.33;;;;;;;5.00;97.90;100979.42;1465019;88;21447;-88
2021/11/20 06:58:21;;;;;;;27.57;17.10;;;;;;;5.04;98.00;100973.05;1463447;88;21462;-87
2021/11/20 07:00:58;;;;;;;23.57;15.67;;;;;;;5.07;98.15;100973.33;1456442;88;21573;-87
2021/11/20 07:03:45;;;;;;;23.67;16.40;;;;;;;5.12;98.03;100972.53;1452468;88;22490;-87
2021/11/20 07:06:23;;;;;;;27.33;18.87;;;;;;;5.19;98.21;100970.73;1467173;88;21463;-88
2021/11/20 07:08:53;;;;;;;30.93;17.00;;;;;;;5.27;98.13;100974.19;1478755;89;21595;-88
2021/11/20 07:11:20;;;;;;;26.85;16.62;;;;;;;5.31;98.04;100965.16;1460158;88;21389;-88
2021/11/20 07:13:49;;;;;;;27.43;18.83;;;;;;;5.32;97.88;100968.62;1466875;88;21485;-87
2021/11/20 07:16:16;;;;;;;29.23;20.93;;;;;;;5.29;97.77;100977.53;1456892;88;21515;-87
2021/11/20 07:18:43;;;;;;;22.43;18.27;;;;;;;5.29;97.74;100968.81;1453638;89;21382;-87
2021/11/20 07:21:11;;;;;;;23.13;18.40;;;;;;;5.23;98.41;100976.63;1458855;88;22351;-86
2021/11/20 07:23:38;;;;;;;28.33;19.80;;;;;;;5.18;98.60;100977.41;1461967;88;21463;-88
2021/11/20 07:26:08;;;;;;;25.40;17.43;;;;;;;5.20;98.50;100983.38;1460804;89;22313;-87
2021/11/20 07:28:36;;;;;;;25.97;18.50;;;;;;;5.24;98.99;100980.95;1460416;89;21448;-90
2021/11/20 07:31:03;;;;;;;29.77;19.13;;;;;;;5.23;99.00;100980.56;1465521;89;21374;-86
2021/11/20 07:33:31;;;;;;;27.83;19.93;;;;;;;5.25;99.09;100982.63;1467599;89;22505;-87
2021/11/20 07:36:03;;;;;;;29.23;17.07;;;;;;;5.26;99.45;100976.89;1468982;88;21509;-87
2021/11/20 07:38:41;;;;;;;;;;;;;;;5.29;99.18;100999.84;1468619;89;21433;-87
2021/11/20 07:41:08;;;;;;;24.20;18.50;;;;;;;5.32;99.44;100993.11;1465666;88;20282;-87
2021/11/20 07:43:35;;;;;;;27.93;17.73;;;;;;;5.32;99.66;100983.92;1461692;89;22483;-87
2021/11/20 07:46:05;;;;;;;35.40;19.97;;;;;;;5.34;99.46;100992.52;1467298;89;21441;-88
2021/11/20 07:48:34;;;;;;;30.27;21.30;;;;;;;5.37;99.50;100998.88;1462147;89;23257;-87
2021/11/20 07:50:59;;;;;;;23.03;16.63;;;;;;;5.36;99.62;101000.30;1454825;87;22632;-87
2021/11/20 07:53:26;;;;;;;28.87;19.57;;;;;;;5.36;99.58;100998.52;1434770;91;22535;-87
2021/11/20 07:55:52;;;;;;;24.70;17.57;;;;;;;5.36;99.71;100997.68;1433553;91;22411;-88
2021/11/20 07:58:20;;;;;;;20.23;16.63;;;;;;;5.40;99.46;100992.58;1431847;91;21559;-87
2021/11/20 08:00:47;;;;;;;30.60;18.43;;;;;;;5.42;99.51;100992.86;1428650;91;21434;-88
2021/11/20 08:03:15;;;;;;;28.43;19.40;;;;;;;5.47;99.54;101010.95;1438772;91;21582;-87
2021/11/20 08:05:43;;;;;;;29.43;20.97;;;;;;;5.52;99.63;101008.00;1440483;91;22329;-86
2021/11/20 08:08:10;;;;;;;29.73;20.00;;;;;;;5.54;99.48;101007.44;1449796;90;22454;-87
2021/11/20 08:10:38;;;;;;;28.07;20.23;;;;;;;5.59;99.48;101010.61;1429143;90;21530;-88
2021/11/20 08:13:04;;;;;;;29.60;21.77;;;;;;;5.65;99.47;100996.59;1459185;90;21479;-87
2021/11/20 08:15:32;;;;;;;21.60;16.73;;;;;;;5.71;99.37;101009.79;1445741;89;22490;-87
2021/11/20 08:17:59;;;;;;;25.47;17.20;;;;;;;5.75;98.87;101023.55;1435964;89;22373;-88
2021/11/20 08:20:32;;;;;;;24.53;17.30;;;;;;;5.80;98.71;101013.11;1450685;89;21538;-88
2021/11/20 08:23:02;;;;;;;31.13;19.80;;;;;;;5.79;98.46;101014.06;1452153;90;21656;-87
2021/11/20 08:25:30;;;;;;;27.93;19.27;;;;;;;5.85;98.67;101011.02;1449816;90;22374;-87
2021/11/20 08:27:57;;;;;;;39.20;20.50;;;;;;;5.83;98.50;101026.04;1447193;90;21522;-87
2021/11/20 08:30:27;;;;;;;25.07;19.67;;;;;;;5.83;98.62;101024.72;1439515;90;22530;-87
2021/11/20 08:32:56;;;;;;;29.35;20.05;;;;;;;5.92;98.96;101036.87;1441966;89;21449;-89
2021/11/20 08:35:23;;;;;;;27.77;21.03;;;;;;;6.00;98.91;101022.31;1457795;90;21493;-87
2021/11/20 08:37:49;;;;;;;37.03;23.37;;;;;;;6.06;98.77;101026.31;1445630;90;21419;-85
2021/11/20 08:40:21;;;;;;;45.60;31.13;;;;;;;6.09;98.65;101032.20;1443971;89;21575;-86
2021/11/20 08:42:47;;;;;;;34.50;25.60;;;;;;;6.17;98.82;101033.48;1444408;90;21501;-86
2021/11/20 08:45:19;;;;;;;34.90;24.47;;;;;;;6.23;98.79;101026.00;1450199;90;21508;-86
2021/11/20 08:47:48;;;;;;;27.83;21.50;;;;;;;6.37;99.00;101034.75;1445761;89;21486;-86
2021/11/20 08:50:19;;;;;;;27.23;20.07;;;;;;;6.60;99.56;101039.25;1452640;89;21478;-86
2021/11/20 08:52:46;;;;;;;26.47;19.37;;;;;;;6.76;99.09;101029.34;1443466;90;21457;-86
2021/11/20 08:55:13;;;;;;;27.67;21.23;;;;;;;6.80;97.45;101029.95;1430246;91;22438;-87
2021/11/20 08:57:42;;;;;;;38.10;23.80;;;;;;;6.81;96.60;101034.26;1428389;91;21594;-87
2021/11/20 09:00:17;;;;;;;35.53;23.87;;;;;;;6.85;96.31;101029.16;1420074;90;21450;-87
2021/11/20 09:02:49;;;;;;;32.67;22.80;;;;;;;6.82;95.85;101020.63;1422177;91;21979;-87
2021/11/20 09:05:35;;;;;;;53.83;26.73;;;;;;;6.82;95.97;101016.67;1429903;91;22648;-87
2021/11/20 09:08:16;;;;;;;33.67;24.53;;;;;;;6.85;96.38;101026.98;1413887;91;21478;-87
2021/11/20 09:10:57;;;;;;;35.30;25.25;;;;;;;6.94;96.43;101026.35;1436772;91;21463;-88
2021/11/20 09:13:31;;;;;;;38.17;27.52;;;;;;;6.99;96.18;101020.27;1436979;91;21448;-87
2021/11/20 09:16:14;;;;;;;35.53;23.90;;;;;;;7.07;96.47;101019.23;1430022;91;22315;-87
2021/11/20 09:18:41;;;;;;;40.33;27.90;;;;;;;7.16;96.34;101026.50;1417934;89;21585;-87
2021/11/20 09:21:10;;;;;;;38.47;27.83;;;;;;;7.21;96.04;101026.98;1401577;92;21473;-87
2021/11/20 09:23:38;;;;;;;34.60;25.33;;;;;;;7.28;95.71;101022.12;1409706;92;22535;-87
2021/11/20 09:26:05;;;;;;;41.47;28.83;;;;;;;7.32;95.34;101020.11;1414099;92;21643;-87
2021/11/20 09:28:32;;;;;;;46.43;31.17;;;;;;;7.33;94.98;101013.88;1393768;92;22368;-87
2021/11/20 09:31:03;;;;;;;47.97;31.83;;;;;;;7.34;94.86;101010.31;1439906;90;21469;-87
2021/11/20 09:33:29;;;;;;;39.53;29.57;;;;;;;7.32;94.47;101010.89;1436726;90;21440;-88
2021/11/20 09:36:02;;;;;;;47.00;31.93;;;;;;;7.33;94.50;101015.19;1434962;91;22181;-87
2021/11/20 09:38:29;;;;;;;45.47;28.10;;;;;;;7.32;94.21;101014.84;1426205;88;21836;-87
2021/11/20 09:41:13;;;;;;;39.80;28.60;;;;;;;7.39;94.53;101014.29;1395610;93;21533;-87
2021/11/20 09:43:44;;;;;;;46.27;32.07;;;;;;;7.48;94.48;101009.27;1395417;94;21481;-87
2021/11/20 09:46:19;;;;;;;44.27;30.87;;;;;;;7.57;94.59;101006.81;1395520;93;21673;-87
2021/11/20 09:48:50;;;;;;;40.50;29.13;;;;;;;7.74;94.87;101000.73;1393763;94;22324;-87
2021/11/20 09:51:30;;;;;;;43.30;32.50;;;;;;;7.82;93.37;100999.69;1400186;94;21687;-86
2021/11/20 09:54:00;;;;;;;39.43;28.23;;;;;;;7.96;93.79;100998.17;1400364;94;22351;-87
2021/11/20 09:56:32;;;;;;;45.57;26.20;;;;;;;8.10;93.65;100991.84;1402128;93;21547;-90
2021/11/20 09:59:07;;;;;;;30.43;22.37;;;;;;;8.29;93.63;100989.97;1398674;94;22389;-90
2021/11/20 10:01:50;;;;;;;38.03;26.83;;;;;;;8.45;93.26;100991.77;1400864;93;21562;-88
2021/11/20 10:04:22;;;;;;;68.67;41.27;;;;;;;8.59;92.59;100986.25;1388429;93;21666;-89
2021/11/20 10:07:10;;;;;;;88.23;47.70;;;;;;;8.84;91.15;100980.84;1392669;93;21488;-90
2021/11/20 10:09:38;;;;;;;57.70;35.13;;;;;;;9.25;88.75;100973.52;1396633;93;21553;-87
2021/11/20 10:12:16;;;;;;;33.77;25.07;;;;;;;10.03;88.61;100971.44;1414013;92;21680;-88
2021/11/20 10:14:47;;;;;;;32.80;26.30;;;;;;;10.59;84.63;100962.60;1400863;93;21496;-86
2021/11/20 10:17:31;;;;;;;34.33;25.17;;;;;;;11.15;83.04;100959.01;1395133;93;21466;-87
2021/11/20 10:20:32;;;;;;;35.20;26.30;;;;;;;11.69;84.10;100960.25;1393741;94;21599;-88
2021/11/20 10:23:42;;;;;;;32.30;25.12;;;;;;;12.17;80.13;100944.25;1402589;94;21541;-88
2021/11/20 10:26:31;;;;;;;36.63;25.20;;;;;;;12.45;76.48;100936.29;1393870;93;21503;-87
2021/11/20 10:29:09;;;;;;;33.73;23.37;;;;;;;12.67;74.03;100942.20;1394627;94;21547;-87
2021/11/20 10:31:40;;;;;;;28.93;22.13;;;;;;;12.90;75.49;100942.13;1379050;94;21716;-88
2021/11/20 10:34:27;;;;;;;32.60;20.67;;;;;;;13.05;75.77;100949.91;1425402;91;21575;-87
2021/11/20 10:37:09;;;;;;;25.13;21.77;;;;;;;13.05;73.42;100948.58;1392559;94;21679;-85
2021/11/20 10:39:44;;;;;;;36.30;24.80;;;;;;;13.20;72.54;100938.75;1382735;94;22523;-84
2021/11/20 10:42:25;;;;;;;28.57;22.20;;;;;;;13.24;70.70;100948.11;1383284;93;21496;-84
2021/11/20 10:44:54;;;;;;;;;;;;;;;13.40;70.65;100949.59;1425308;91;22291;-85
2021/11/20 10:47:27;;;;;;;23.87;18.27;;;;;;;13.51;70.62;100949.86;1430413;91;20356;-85
2021/11/20 10:50:12;;;;;;;24.03;19.77;;;;;;;13.82;71.15;100936.13;1432459;91;21722;-84
2021/11/20 10:53:29;;;;;;;20.20;16.60;;;;;;;14.04;70.59;100934.74;1399170;93;21501;-83
2021/11/20 10:56:20;;;;;;;22.53;18.30;;;;;;;13.99;69.07;100936.56;1431353;90;22270;-83
2021/11/20 10:59:10;;;;;;;19.43;16.77;;;;;;;14.21;67.90;100931.17;1429814;90;21471;-83
2021/11/20 11:02:12;;;;;;;19.37;16.90;;;;;;;14.40;68.42;100933.59;1438071;91;22387;-86
2021/11/20 11:05:01;;;;;;;17.87;15.98;;;;;;;14.53;68.10;100937.19;1403046;92;22481;-87
2021/11/20 11:07:38;;;;;;;15.45;12.40;;;;;;;14.71;67.43;100941.08;1405862;93;22074;-89
2021/11/20 11:10:19;;;;;;;17.07;14.45;;;;;;;14.98;65.90;100933.30;1401255;93;21693;-86
2021/11/20 11:12:59;;;;;;;16.83;15.03;;;;;;;14.99;65.28;100932.80;1424887;91;22535;-83
2021/11/20 11:16:05;;;;;;;16.42;14.73;;;;;;;15.14;65.70;100928.50;1406030;92;21679;-84
2021/11/20 11:18:46;;;;;;;16.50;13.35;;;;;;;15.15;64.18;100924.83;1408242;92;21561;-86
2021/11/20 11:21:45;;;;;;;15.00;12.85;;;;;;;15.16;63.23;100919.81;1434056;91;21442;-86
2021/11/20 11:24:19;;;;;;;18.92;14.10;;;;;;;15.30;62.54;100921.83;1433411;90;23285;-84
2021/11/20 11:27:00;;;;;;;21.95;14.18;;;;;;;15.39;63.21;100923.16;1412519;93;21494;-86
2021/11/20 11:29:59;;;;;;;15.08;13.18;;;;;;;15.49;62.19;100918.51;1409755;93;21451;-86
2021/11/20 11:32:33;;;;;;;15.58;13.53;;;;;;;15.38;59.64;100924.17;1435014;90;21509;-85
2021/11/20 11:35:16;;;;;;;16.97;14.03;;;;;;;15.43;62.06;100927.19;1406449;93;21487;-86
2021/11/20 11:38:07;;;;;;;19.05;14.47;;;;;;;15.55;61.91;100918.66;1408317;91;21516;-84